Time;durP1;ratioP1;P1;durP2;ratioP2;P2;SDS_P1;SDS_P2;PMS_P1;PMS_P2;Temp;Humidity;BMP_temperature;BMP_pressure;BME280_temperature;BME280_humidity;BME280_pressure;Samples;Min_cycle;Max_cycle;Signal;HPM_P1;HPM_P2
2022/12/21 00:01:28;;;;;;;2.55;0.70;;;21.90;99.90;;;;;;5113866;28;20233;-78
2022/12/21 00:04:00;;;;;;;3.58;0.65;;;22.00;99.90;;;;;;5112521;28;20191;-77
2022/12/21 00:06:33;;;;;;;3.40;0.65;;;22.20;99.90;;;;;;5113406;28;20194;-78
2022/12/21 00:09:06;;;;;;;2.33;0.45;;;22.40;99.90;;;;;;5113658;28;20212;-79
2022/12/21 00:11:38;;;;;;;2.13;0.47;;;22.30;99.90;;;;;;5113438;28;20194;-80
2022/12/21 00:14:10;;;;;;;1.95;0.50;;;22.10;99.90;;;;;;5112981;28;20270;-77
2022/12/21 00:16:42;;;;;;;1.55;0.30;;;21.80;99.90;;;;;;5113154;28;20202;-77
2022/12/21 00:19:15;;;;;;;2.75;0.50;;;21.70;99.90;;;;;;5112518;28;20279;-79
2022/12/21 00:21:48;;;;;;;7.18;3.13;;;22.00;99.90;;;;;;5108595;28;20286;-78
2022/12/21 00:24:19;;;;;;;1.90;0.60;;;22.50;99.90;;;;;;5109222;28;20642;-78
2022/12/21 00:26:50;;;;;;;1.40;0.40;;;22.90;99.90;;;;;;5108256;28;20187;-80
2022/12/21 00:29:21;;;;;;;2.25;1.65;;;23.00;99.90;;;;;;5110293;28;20215;-77
2022/12/21 00:31:53;;;;;;;2.63;0.60;;;23.30;99.90;;;;;;5110828;28;20192;-79
2022/12/21 00:34:24;;;;;;;1.83;0.63;;;23.40;99.90;;;;;;5110367;28;20199;-79
2022/12/21 00:36:58;;;;;;;1.35;0.50;;;23.30;99.90;;;;;;5114245;28;20230;-83
2022/12/21 00:39:29;;;;;;;1.30;0.40;;;23.50;99.90;;;;;;5107319;28;20577;-78
2022/12/21 00:42:00;;;;;;;0.47;0.20;;;23.30;99.90;;;;;;5108709;28;20196;-79
2022/12/21 00:44:30;;;;;;;1.23;0.50;;;23.40;99.90;;;;;;5124841;27;20198;-79
2022/12/21 00:47:01;;;;;;;2.28;0.40;;;23.60;99.90;;;;;;5117073;28;20198;-76
2022/12/21 00:49:32;;;;;;;1.17;0.30;;;23.80;99.90;;;;;;5114452;27;20217;-78
2022/12/21 00:52:05;;;;;;;1.75;0.30;;;23.50;99.90;;;;;;5119951;27;20292;-77
2022/12/21 00:54:35;;;;;;;3.40;0.40;;;23.60;99.90;;;;;;5129660;27;20287;-80
2022/12/21 00:57:06;;;;;;;0.88;0.20;;;23.80;99.90;;;;;;5120936;27;20272;-78
2022/12/21 00:59:37;;;;;;;1.58;0.30;;;23.80;99.90;;;;;;5124839;27;20270;-80
2022/12/21 01:02:08;;;;;;;1.25;0.40;;;23.80;99.90;;;;;;5134889;27;20650;-78
2022/12/21 01:04:39;;;;;;;2.33;0.80;;;23.80;99.90;;;;;;5124631;27;20303;-78
2022/12/21 01:07:11;;;;;;;1.50;0.50;;;24.00;99.90;;;;;;5103834;28;20271;-80
2022/12/21 01:09:42;;;;;;;1.52;0.50;;;23.60;99.90;;;;;;5111837;28;20211;-77
2022/12/21 01:12:13;;;;;;;2.75;0.43;;;23.50;99.90;;;;;;5108279;28;20562;-78
2022/12/21 01:14:43;;;;;;;0.70;0.30;;;23.50;99.90;;;;;;5115016;28;20270;-77
2022/12/21 01:17:14;;;;;;;0.93;0.20;;;23.70;99.90;;;;;;5116359;28;20198;-77
2022/12/21 01:19:45;;;;;;;1.10;0.40;;;23.70;99.90;;;;;;5111474;28;20727;-78
2022/12/21 01:22:18;;;;;;;1.40;0.40;;;23.50;99.90;;;;;;5116064;28;20301;-77
2022/12/21 01:24:50;;;;;;;1.75;0.30;;;23.50;99.90;;;;;;5116634;27;20270;-76
2022/12/21 01:27:21;;;;;;;1.85;0.40;;;23.70;99.90;;;;;;5116117;28;20226;-78
2022/12/21 01:29:52;;;;;;;1.02;0.57;;;23.90;99.90;;;;;;5104115;28;20226;-78
2022/12/21 01:32:22;;;;;;;3.38;0.60;;;24.10;99.90;;;;;;5097579;28;20195;-76
2022/12/21 01:34:53;;;;;;;2.72;0.40;;;24.20;99.90;;;;;;5113493;28;20658;-78
2022/12/21 01:37:26;;;;;;;0.77;0.20;;;24.10;99.90;;;;;;5115907;28;20219;-78
2022/12/21 01:39:57;;;;;;;2.67;0.35;;;23.70;99.90;;;;;;5105748;28;20719;-80
2022/12/21 01:42:27;;;;;;;1.00;0.40;;;23.70;99.90;;;;;;5095840;28;20279;-77
2022/12/21 01:45:16;;;;;;;2.47;0.40;;;23.80;99.90;;;;;;5115118;28;20184;-76
2022/12/21 01:47:52;;;;;;;2.00;0.30;;;23.70;99.90;;;;;;5116017;28;20230;-77
2022/12/21 01:50:34;;;;;;;0.98;0.38;;;23.70;99.90;;;;;;5113017;28;20221;-76
2022/12/21 01:53:12;;;;;;;3.30;0.60;;;24.00;99.90;;;;;;5112387;27;20200;-77
2022/12/21 01:55:45;;;;;;;2.25;0.30;;;24.00;99.90;;;;;;5121974;27;20198;-81
2022/12/21 01:58:16;;;;;;;1.52;0.30;;;24.00;99.90;;;;;;5118505;27;20195;-76
2022/12/21 02:00:47;;;;;;;0.55;0.20;;;23.80;99.90;;;;;;5128819;27;20223;-78
2022/12/21 02:03:19;;;;;;;0.95;0.40;;;23.70;99.90;;;;;;5113854;27;20200;-80
2022/12/21 02:05:55;;;;;;;0.80;0.40;;;23.70;99.90;;;;;;5114277;27;20689;-79
2022/12/21 02:08:29;;;;;;;1.15;0.40;;;23.90;99.90;;;;;;5101821;28;20213;-77
2022/12/21 02:11:01;;;;;;;3.53;0.60;;;24.20;99.90;;;;;;5113795;28;20211;-77
2022/12/21 02:13:32;;;;;;;2.78;0.50;;;24.00;99.90;;;;;;5115543;27;20734;-77
2022/12/21 02:16:26;;;;;;;0.73;0.50;;;23.70;99.90;;;;;;5104292;28;20207;-80
2022/12/21 02:19:16;;;;;;;1.15;0.40;;;23.80;99.90;;;;;;5114517;28;20500;-83
2022/12/21 02:21:53;;;;;;;1.35;0.30;;;23.90;99.90;;;;;;5105524;28;20278;-82
2022/12/21 02:24:56;;;;;;;5.43;0.50;;;24.00;99.90;;;;;;5112027;28;20270;-78
2022/12/21 02:28:11;;;;;;;0.98;0.30;;;24.10;99.90;;;;;;5114375;28;20190;-79
2022/12/21 02:31:05;;;;;;;2.10;0.43;;;24.20;99.90;;;;;;5111405;28;20216;-84
2022/12/21 02:33:59;;;;;;;1.77;0.20;;;24.40;99.90;;;;;;5100562;28;20204;-77
2022/12/21 02:36:38;;;;;;;1.80;0.30;;;24.30;99.90;;;;;;5097526;28;20204;-83
2022/12/21 02:39:19;;;;;;;1.60;0.50;;;24.30;99.90;;;;;;5113783;28;20201;-78
2022/12/21 02:41:59;;;;;;;1.40;0.52;;;24.10;99.90;;;;;;5109389;28;20202;-78
2022/12/21 02:44:49;;;;;;;0.40;0.20;;;23.90;99.90;;;;;;5110187;28;20199;-78
2022/12/21 02:47:29;;;;;;;2.08;0.35;;;24.00;99.90;;;;;;5114392;28;20287;-81
2022/12/21 02:50:04;;;;;;;2.88;0.30;;;24.10;99.90;;;;;;5106553;28;20773;-76
2022/12/21 02:52:39;;;;;;;1.17;0.30;;;24.00;99.90;;;;;;5123119;27;20199;-78
2022/12/21 02:55:14;;;;;;;2.10;0.30;;;23.80;99.90;;;;;;5099289;28;20539;-81
2022/12/21 02:57:46;;;;;;;1.13;0.20;;;23.60;99.90;;;;;;5111143;28;20196;-84
2022/12/21 03:00:20;;;;;;;2.20;0.40;;;23.40;99.90;;;;;;5108207;28;20278;-77
2022/12/21 03:06:19;;;;;;;1.15;0.30;;;23.60;99.90;;;;;;5110698;27;20272;-79
2022/12/21 03:09:04;;;;;;;0.82;0.28;;;23.60;99.90;;;;;;5109612;28;20279;-83
2022/12/21 03:11:41;;;;;;;1.73;0.20;;;23.50;99.90;;;;;;5108010;28;20584;-83
2022/12/21 03:14:17;;;;;;;0.52;0.20;;;23.70;99.90;;;;;;5111368;28;20210;-83
2022/12/21 03:16:54;;;;;;;1.60;0.20;;;23.50;99.90;;;;;;5107627;28;20318;-88
2022/12/21 03:19:33;;;;;;;2.08;0.30;;;23.40;99.90;;;;;;5111721;28;20282;-79
2022/12/21 03:22:08;;;;;;;2.28;0.30;;;23.30;99.90;;;;;;5103935;28;20188;-82
2022/12/21 03:24:42;;;;;;;1.00;0.17;;;23.00;99.90;;;;;;5109759;28;20286;-91
2022/12/21 03:27:18;;;;;;;1.17;0.20;;;23.20;99.90;;;;;;5113333;28;20271;-89
2022/12/21 03:29:55;;;;;;;2.78;0.32;;;23.20;99.90;;;;;;5102855;28;20310;-82
2022/12/21 03:32:32;;;;;;;0.95;0.20;;;23.40;99.90;;;;;;5104106;28;20196;-83
2022/12/21 03:35:11;;;;;;;0.98;0.20;;;23.10;99.90;;;;;;5113074;27;20364;-79
2022/12/21 03:37:44;;;;;;;2.17;0.30;;;23.10;99.90;;;;;;5112644;28;20227;-80
2022/12/21 03:40:19;;;;;;;4.75;1.00;;;23.20;99.90;;;;;;5105492;27;20198;-85
2022/12/21 03:42:52;;;;;;;0.88;0.30;;;23.20;99.90;;;;;;5115439;27;20627;-86
2022/12/21 03:45:26;;;;;;;0.52;0.20;;;23.20;99.90;;;;;;5123773;27;20282;-81
2022/12/21 03:48:00;;;;;;;0.70;0.35;;;23.30;99.90;;;;;;5112095;27;20286;-78
2022/12/21 03:50:37;;;;;;;0.73;0.30;;;23.40;99.90;;;;;;5107519;28;20218;-77
2022/12/21 03:53:19;;;;;;;0.95;0.30;;;23.10;99.90;;;;;;5111639;28;20205;-77
2022/12/21 03:55:51;;;;;;;0.75;0.30;;;23.10;99.90;;;;;;5111497;27;20195;-77
2022/12/21 03:58:21;;;;;;;0.82;0.40;;;23.10;99.90;;;;;;5113378;28;20211;-78
2022/12/21 04:01:01;;;;;;;0.30;0.20;;;23.00;99.90;;;;;;5113279;28;20694;-76
2022/12/21 04:03:35;;;;;;;2.40;0.20;;;23.10;99.90;;;;;;5115114;27;20192;-74
2022/12/21 04:06:11;;;;;;;1.10;0.30;;;23.00;99.90;;;;;;5115403;28;20626;-77
2022/12/21 04:08:42;;;;;;;1.13;0.22;;;22.90;99.90;;;;;;5115219;27;20195;-80
2022/12/21 04:12:36;;;;;;;1.20;0.20;;;22.70;99.90;;;;;;5121190;27;20215;-76
2022/12/21 04:14:05;;;;;;;0.75;0.30;;;22.50;99.90;;;;;;5115687;28;20192;-79
2022/12/21 04:16:36;;;;;;;3.95;0.40;;;22.40;99.90;;;;;;5112125;28;20210;-81
2022/12/21 04:21:55;;;;;;;0.52;0.20;;;22.40;99.90;;;;;;5118174;27;20221;-80
2022/12/21 04:30:00;;;;;;;1.58;0.20;;;22.40;99.90;;;;;;5121566;27;20263;-75
2022/12/21 04:32:31;;;;;;;3.05;0.82;;;22.20;99.90;;;;;;5104347;28;20540;-76
2022/12/21 04:35:02;;;;;;;1.65;0.32;;;22.30;99.90;;;;;;5120865;27;20195;-77
2022/12/21 04:37:35;;;;;;;0.52;0.30;;;22.20;99.90;;;;;;5129701;27;20313;-78
2022/12/21 04:40:06;;;;;;;1.23;0.30;;;22.30;99.90;;;;;;5115242;27;20285;-76
2022/12/21 04:42:37;;;;;;;1.70;0.52;;;22.20;99.90;;;;;;5120868;27;20191;-75
2022/12/21 04:45:08;;;;;;;0.90;0.40;;;22.20;99.90;;;;;;5116386;27;20194;-77
2022/12/21 04:47:39;;;;;;;1.15;0.30;;;22.20;99.90;;;;;;5115077;27;20625;-78
2022/12/21 04:50:11;;;;;;;1.55;0.30;;;22.20;99.90;;;;;;5121921;27;20221;-76
2022/12/21 04:52:44;;;;;;;1.15;0.32;;;22.00;99.90;;;;;;5112800;27;20191;-80
2022/12/21 04:55:14;;;;;;;3.03;0.30;;;21.90;99.90;;;;;;5110839;28;20192;-85
2022/12/21 04:57:45;;;;;;;3.67;0.30;;;21.90;99.90;;;;;;5117162;27;20196;-76
2022/12/21 05:00:17;;;;;;;1.48;0.32;;;21.80;99.90;;;;;;5115812;28;20278;-82
2022/12/21 05:02:48;;;;;;;0.63;0.30;;;21.80;99.90;;;;;;5110506;28;20199;-78
2022/12/21 05:05:19;;;;;;;3.35;0.90;;;21.90;99.90;;;;;;5114057;27;20306;-89
2022/12/21 05:07:54;;;;;;;1.92;0.40;;;21.90;99.90;;;;;;5112869;27;20262;-79
2022/12/21 05:10:25;;;;;;;2.15;0.52;;;21.80;99.90;;;;;;5114370;28;20217;-82
2022/12/21 05:12:56;;;;;;;1.35;0.35;;;21.90;99.90;;;;;;5116651;28;20595;-84
2022/12/21 05:15:27;;;;;;;2.38;0.30;;;21.80;99.90;;;;;;5114107;28;20274;-87
2022/12/21 05:17:58;;;;;;;0.43;0.20;;;21.90;99.90;;;;;;5115467;28;20192;-84
2022/12/21 05:20:28;;;;;;;0.77;0.35;;;21.90;99.90;;;;;;5116808;28;20201;-78
2022/12/21 05:23:01;;;;;;;3.95;0.47;;;21.80;99.90;;;;;;5113796;28;20203;-82
2022/12/21 05:25:32;;;;;;;1.02;0.30;;;21.80;99.90;;;;;;5116548;28;20198;-83
2022/12/21 05:28:03;;;;;;;1.33;0.30;;;21.80;99.90;;;;;;5113894;28;20195;-83
2022/12/21 05:30:33;;;;;;;2.45;0.45;;;21.70;99.90;;;;;;5115964;28;20218;-77
2022/12/21 05:33:04;;;;;;;1.77;0.30;;;21.70;99.90;;;;;;5113298;28;20286;-78
2022/12/21 05:35:35;;;;;;;2.25;0.40;;;21.60;99.90;;;;;;5116093;28;20544;-80
2022/12/21 05:38:08;;;;;;;0.90;0.30;;;21.50;99.90;;;;;;5112784;28;20257;-79
2022/12/21 05:40:38;;;;;;;2.35;0.30;;;21.50;99.90;;;;;;5115689;28;20188;-80
2022/12/21 05:43:10;;;;;;;3.20;0.30;;;21.60;99.90;;;;;;5113092;28;20187;-77
2022/12/21 05:45:40;;;;;;;1.17;0.30;;;21.50;99.90;;;;;;5112341;28;20274;-83
2022/12/21 05:48:11;;;;;;;0.88;0.30;;;21.40;99.90;;;;;;5115091;28;20191;-80
2022/12/21 05:50:42;;;;;;;2.85;0.30;;;21.40;99.90;;;;;;5111019;28;20219;-86
2022/12/21 05:53:15;;;;;;;2.53;0.35;;;21.40;99.90;;;;;;5115402;28;20270;-83
2022/12/21 05:55:47;;;;;;;3.17;0.45;;;21.50;99.90;;;;;;5107310;28;20231;-82
2022/12/21 05:58:18;;;;;;;2.28;0.30;;;21.30;99.90;;;;;;5112457;28;20211;-83
2022/12/21 06:00:49;;;;;;;0.90;0.40;;;21.30;99.90;;;;;;5112468;28;20261;-81
2022/12/21 06:03:21;;;;;;;1.17;0.30;;;21.20;99.90;;;;;;5112504;28;20555;-84
2022/12/21 06:05:51;;;;;;;0.95;0.30;;;21.20;99.90;;;;;;5113184;28;20654;-82
2022/12/21 06:08:24;;;;;;;1.67;0.30;;;21.10;99.90;;;;;;5115895;28;20278;-85
2022/12/21 06:10:55;;;;;;;2.33;0.50;;;21.20;99.90;;;;;;5114847;28;20207;-80
2022/12/21 06:13:26;;;;;;;1.52;0.45;;;21.10;99.90;;;;;;5112849;28;20202;-78
2022/12/21 06:15:56;;;;;;;2.47;0.50;;;21.00;99.90;;;;;;5115152;28;20180;-81
2022/12/21 06:18:28;;;;;;;1.50;0.40;;;21.10;99.90;;;;;;5108094;28;20275;-81
2022/12/21 06:20:59;;;;;;;1.10;0.50;;;21.10;99.90;;;;;;5114935;28;20249;-76
2022/12/21 06:23:31;;;;;;;3.03;0.47;;;20.90;99.90;;;;;;5115406;28;20278;-82
2022/12/21 06:26:03;;;;;;;1.80;0.30;;;21.00;99.90;;;;;;5115658;28;20278;-77
2022/12/21 06:28:34;;;;;;;1.35;0.38;;;21.10;99.90;;;;;;5115861;28;20188;-87
2022/12/21 06:31:10;;;;;;;2.33;0.25;;;21.10;99.90;;;;;;5115481;28;20226;-83
2022/12/21 06:33:41;;;;;;;2.00;0.30;;;21.00;99.90;;;;;;5115508;28;20274;-82
2022/12/21 06:36:13;;;;;;;2.05;0.40;;;21.10;99.90;;;;;;5108731;28;20280;-81
2022/12/21 06:38:46;;;;;;;1.02;0.30;;;21.10;99.90;;;;;;5115210;28;20194;-83
2022/12/21 06:41:18;;;;;;;1.70;0.65;;;21.20;99.90;;;;;;5114414;28;20591;-82
2022/12/21 06:43:50;;;;;;;1.95;0.30;;;21.30;99.90;;;;;;5114873;28;20714;-82
2022/12/21 06:46:21;;;;;;;2.60;0.50;;;21.30;99.90;;;;;;5115183;28;20661;-87
2022/12/21 06:48:52;;;;;;;2.20;0.40;;;21.20;99.90;;;;;;5115133;28;20635;-81
2022/12/21 06:51:24;;;;;;;2.28;0.50;;;21.10;99.90;;;;;;5114978;28;20692;-84
2022/12/21 06:53:57;;;;;;;2.85;0.50;;;21.00;99.90;;;;;;5114842;28;20663;-84
2022/12/21 06:56:32;;;;;;;2.38;0.40;;;20.90;99.90;;;;;;5114828;28;20639;-86
2022/12/21 06:59:03;;;;;;;2.05;0.35;;;20.80;99.90;;;;;;5114775;28;20198;-87
2022/12/21 07:01:35;;;;;;;1.92;0.47;;;20.70;99.90;;;;;;5114904;28;20188;-80
2022/12/21 07:04:06;;;;;;;0.90;0.40;;;20.70;99.90;;;;;;5114354;28;20302;-83
2022/12/21 07:06:37;;;;;;;2.97;0.40;;;20.50;99.90;;;;;;5111698;28;20222;-83
2022/12/21 07:09:11;;;;;;;2.45;0.40;;;20.40;99.90;;;;;;5114646;28;20571;-80
2022/12/21 07:11:42;;;;;;;3.15;0.52;;;20.40;99.90;;;;;;5114634;27;20311;-84
2022/12/21 07:14:13;;;;;;;2.80;0.60;;;20.30;99.90;;;;;;5114614;28;20195;-83
2022/12/21 07:16:44;;;;;;;3.08;0.50;;;20.20;99.90;;;;;;5114492;28;20192;-83
2022/12/21 07:19:15;;;;;;;1.85;0.60;;;20.20;99.90;;;;;;5114598;28;20217;-85
2022/12/21 07:21:45;;;;;;;1.27;0.60;;;20.20;99.90;;;;;;5114286;28;20651;-79
2022/12/21 07:24:18;;;;;;;2.03;0.45;;;20.10;99.90;;;;;;5114290;28;20184;-83
2022/12/21 07:26:49;;;;;;;2.50;0.40;;;20.10;99.90;;;;;;5114179;28;20702;-83
2022/12/21 07:29:19;;;;;;;2.28;0.60;;;20.10;99.90;;;;;;5114336;28;20190;-79
2022/12/21 07:31:50;;;;;;;2.45;0.57;;;20.20;99.90;;;;;;5114370;28;20225;-82
2022/12/21 07:34:21;;;;;;;0.45;0.40;;;20.20;99.90;;;;;;5114374;28;20188;-83
2022/12/21 07:36:52;;;;;;;1.63;0.50;;;20.10;99.90;;;;;;5114457;28;20284;-85
2022/12/21 07:39:25;;;;;;;1.55;0.40;;;20.10;99.90;;;;;;5113536;28;20282;-84
2022/12/21 07:41:55;;;;;;;2.25;0.45;;;20.00;99.90;;;;;;5113623;28;20286;-79
2022/12/21 07:44:26;;;;;;;2.17;0.63;;;20.00;99.90;;;;;;5112066;27;20680;-77
2022/12/21 07:46:57;;;;;;;1.25;0.60;;;19.90;99.90;;;;;;5112945;28;20520;-76
2022/12/21 07:49:28;;;;;;;2.15;0.40;;;19.90;99.90;;;;;;5111827;28;20191;-77
2022/12/21 07:51:59;;;;;;;0.52;0.30;;;19.80;99.90;;;;;;5134338;27;20301;-75
2022/12/21 07:54:31;;;;;;;3.72;0.82;;;19.60;99.90;;;;;;5118609;27;20273;-75
2022/12/21 07:57:02;;;;;;;1.90;0.70;;;19.60;99.90;;;;;;5134262;27;20230;-77
2022/12/21 07:59:33;;;;;;;0.30;0.30;;;19.60;99.90;;;;;;5122912;27;20747;-75
2022/12/21 08:02:04;;;;;;;0.77;0.32;;;19.60;99.90;;;;;;5112436;28;20290;-76
2022/12/21 08:04:35;;;;;;;1.33;0.40;;;19.40;99.90;;;;;;5111379;27;20243;-77
2022/12/21 08:07:06;;;;;;;3.88;0.60;;;19.40;99.90;;;;;;5096672;28;20198;-76
2022/12/21 08:09:39;;;;;;;0.98;0.40;;;19.40;99.90;;;;;;5111382;28;20227;-75
2022/12/21 08:12:10;;;;;;;1.10;0.40;;;19.30;99.90;;;;;;5113606;28;20234;-82
2022/12/21 08:14:40;;;;;;;3.05;0.63;;;19.30;99.90;;;;;;5113603;28;20549;-79
2022/12/21 08:17:11;;;;;;;1.45;0.47;;;19.20;99.90;;;;;;5119357;28;20285;-75
2022/12/21 08:19:42;;;;;;;3.38;0.50;;;19.20;99.90;;;;;;5133230;27;20187;-75
2022/12/21 08:22:13;;;;;;;1.75;0.47;;;19.20;99.90;;;;;;5115550;28;20658;-75
2022/12/21 08:24:46;;;;;;;1.17;0.50;;;19.10;99.90;;;;;;5113414;28;20274;-78
2022/12/21 08:27:17;;;;;;;2.67;0.68;;;19.10;99.90;;;;;;5111502;28;20194;-75
2022/12/21 08:29:48;;;;;;;2.20;0.60;;;19.10;99.90;;;;;;5113115;28;20577;-77
2022/12/21 08:32:19;;;;;;;1.30;0.40;;;19.00;99.90;;;;;;5113663;28;20310;-77
2022/12/21 08:34:50;;;;;;;1.52;0.30;;;19.00;99.90;;;;;;5112962;28;20283;-76
2022/12/21 08:37:21;;;;;;;2.00;0.40;;;19.00;99.90;;;;;;5111156;28;20235;-77
2022/12/21 08:39:54;;;;;;;2.53;0.52;;;19.00;99.90;;;;;;5109775;28;20199;-76
2022/12/21 08:42:24;;;;;;;2.80;0.50;;;19.00;99.90;;;;;;5120190;28;20190;-75
2022/12/21 08:44:55;;;;;;;19.13;13.38;;;19.00;99.90;;;;;;5113836;28;20281;-75
2022/12/21 08:47:26;;;;;;;2.58;0.60;;;18.90;99.90;;;;;;5111213;28;20279;-77
2022/12/21 08:49:57;;;;;;;1.15;0.30;;;18.90;99.90;;;;;;5115135;28;20283;-78
2022/12/21 08:52:28;;;;;;;1.45;0.50;;;18.80;99.90;;;;;;5123109;28;20221;-77
2022/12/21 08:55:00;;;;;;;2.72;0.57;;;18.80;99.90;;;;;;5113263;28;20207;-75
2022/12/21 08:57:31;;;;;;;1.30;0.40;;;18.70;99.90;;;;;;5126950;28;20286;-77
2022/12/21 09:00:02;;;;;;;0.68;0.30;;;18.70;99.90;;;;;;5129919;27;20201;-76
2022/12/21 09:02:33;;;;;;;2.95;0.70;;;18.70;99.90;;;;;;5112178;28;20192;-76
2022/12/21 09:05:04;;;;;;;2.13;0.65;;;18.70;99.90;;;;;;5113869;28;20303;-76
2022/12/21 09:07:35;;;;;;;3.38;0.77;;;18.60;99.90;;;;;;5115110;28;20650;-75
2022/12/21 09:10:09;;;;;;;2.40;0.93;;;18.60;99.90;;;;;;5117510;27;20200;-76
2022/12/21 09:12:39;;;;;;;2.17;0.90;;;18.60;99.90;;;;;;5113383;27;20749;-78
2022/12/21 09:15:11;;;;;;;0.95;0.50;;;18.60;99.90;;;;;;5124217;27;20274;-74
2022/12/21 09:17:42;;;;;;;2.13;0.60;;;18.60;99.90;;;;;;5116023;28;20192;-75
2022/12/21 09:20:13;;;;;;;1.13;0.50;;;18.50;99.90;;;;;;5128690;27;20274;-76
2022/12/21 09:22:43;;;;;;;1.10;0.50;;;18.50;99.90;;;;;;5096177;28;20200;-85
2022/12/21 09:25:16;;;;;;;2.97;0.50;;;18.50;99.90;;;;;;5102463;27;20195;-79
2022/12/21 09:27:47;;;;;;;1.75;0.50;;;18.50;99.90;;;;;;5126034;27;20195;-78
2022/12/21 09:30:18;;;;;;;3.15;0.80;;;18.40;99.90;;;;;;5112808;27;20195;-80
2022/12/21 09:32:49;;;;;;;1.27;0.45;;;18.40;99.90;;;;;;5130056;27;20301;-82
2022/12/21 09:35:20;;;;;;;2.08;0.65;;;18.40;99.90;;;;;;5116523;27;20269;-88
2022/12/21 09:37:51;;;;;;;3.35;0.70;;;18.40;99.90;;;;;;5114237;28;20592;-88
2022/12/21 09:40:24;;;;;;;0.82;0.45;;;18.40;99.90;;;;;;5114842;28;20290;-83
2022/12/21 09:43:05;;;;;;;3.42;0.50;;;18.40;99.90;;;;;;5115325;28;20200;-86
2022/12/21 09:45:49;;;;;;;1.67;0.60;;;18.30;99.90;;;;;;5115225;28;20191;-86
2022/12/21 09:48:25;;;;;;;2.78;0.75;;;18.40;99.90;;;;;;5112494;27;20275;-85
2022/12/21 09:51:00;;;;;;;1.55;0.50;;;18.30;99.90;;;;;;5112468;27;20277;-87
2022/12/21 09:53:35;;;;;;;1.90;0.60;;;18.30;99.90;;;;;;5119178;27;20274;-87
2022/12/21 09:56:09;;;;;;;6.28;0.55;;;18.30;99.90;;;;;;5116482;28;20218;-85
2022/12/21 09:58:43;;;;;;;1.40;0.50;;;18.30;99.90;;;;;;5116353;28;20268;-87
2022/12/21 10:01:22;;;;;;;1.98;0.47;;;18.30;99.90;;;;;;5115604;28;20286;-87
2022/12/21 10:04:05;;;;;;;1.50;0.50;;;18.20;99.90;;;;;;5113921;27;20306;-83
2022/12/21 10:07:00;;;;;;;5.97;1.13;;;18.20;99.90;;;;;;5121320;27;20198;-82
2022/12/21 10:09:49;;;;;;;1.75;0.80;;;18.20;99.90;;;;;;5127114;27;20215;-84
2022/12/21 10:12:31;;;;;;;1.52;0.65;;;18.20;99.90;;;;;;5123445;27;20249;-87
2022/12/21 10:15:18;;;;;;;1.83;0.60;;;18.20;99.90;;;;;;5133507;27;20198;-87
2022/12/21 10:17:58;;;;;;;1.85;0.60;;;18.10;99.90;;;;;;5134013;27;20277;-84
2022/12/21 10:20:44;;;;;;;2.08;0.50;;;18.20;99.90;;;;;;5112533;28;20198;-87
2022/12/21 10:23:20;;;;;;;0.75;0.45;;;18.10;99.90;;;;;;5114284;28;20616;-87
2022/12/21 10:25:55;;;;;;;2.33;0.57;;;18.10;99.90;;;;;;5112023;28;20646;-87
2022/12/21 10:28:46;;;;;;;2.42;0.63;;;18.10;99.90;;;;;;5116437;27;20194;-82
2022/12/21 10:31:21;;;;;;;2.10;0.57;;;18.00;99.90;;;;;;5106191;27;20222;-87
2022/12/21 10:33:54;;;;;;;2.33;0.52;;;18.00;99.90;;;;;;5118155;27;20199;-86
2022/12/21 10:36:29;;;;;;;1.40;0.47;;;18.00;99.90;;;;;;5102767;28;20202;-79
2022/12/21 10:38:59;;;;;;;1.17;0.43;;;18.00;99.90;;;;;;5112474;28;20273;-79
2022/12/21 10:41:34;;;;;;;2.13;0.50;;;18.00;99.90;;;;;;5114646;28;20222;-86
2022/12/21 10:44:06;;;;;;;2.80;0.70;;;18.00;99.90;;;;;;5115353;28;20273;-84
2022/12/21 10:46:39;;;;;;;0.93;0.52;;;18.00;99.90;;;;;;5114867;28;20631;-87
2022/12/21 10:49:20;;;;;;;2.25;0.50;;;17.90;99.90;;;;;;5115413;28;20699;-79
2022/12/21 10:51:51;;;;;;;1.02;0.30;;;17.90;99.90;;;;;;5115118;28;20674;-80
2022/12/21 10:54:29;;;;;;;3.22;0.50;;;17.90;99.90;;;;;;5114902;28;20200;-83
2022/12/21 10:57:02;;;;;;;1.15;0.40;;;17.90;99.90;;;;;;5114214;28;20187;-87
2022/12/21 10:59:43;;;;;;;0.63;0.32;;;17.90;99.90;;;;;;5114777;28;20198;-81
2022/12/21 11:02:36;;;;;;;4.05;0.60;;;17.90;99.90;;;;;;5115219;27;20270;-83
2022/12/21 11:05:25;;;;;;;2.10;0.60;;;17.90;99.90;;;;;;5114287;28;20276;-82
2022/12/21 11:08:12;;;;;;;2.75;0.60;;;17.90;99.90;;;;;;5114604;28;20190;-87
2022/12/21 11:10:44;;;;;;;1.17;0.60;;;17.90;99.90;;;;;;5114438;28;20188;-87
2022/12/21 11:13:16;;;;;;;2.75;0.55;;;17.90;99.90;;;;;;5114740;28;20303;-83
2022/12/21 11:16:00;;;;;;;3.10;0.70;;;17.90;99.90;;;;;;5114108;28;20190;-85
2022/12/21 11:18:41;;;;;;;1.70;0.50;;;17.90;99.90;;;;;;5114275;28;20274;-87
2022/12/21 11:21:23;;;;;;;1.65;0.55;;;17.90;99.90;;;;;;5115045;28;20187;-83
2022/12/21 11:23:59;;;;;;;1.65;0.45;;;17.80;99.90;;;;;;5114562;28;20187;-80
2022/12/21 11:26:32;;;;;;;1.83;0.45;;;17.80;99.90;;;;;;5114388;28;20190;-79
2022/12/21 11:29:05;;;;;;;2.03;0.52;;;17.80;99.90;;;;;;5113696;28;20209;-82
2022/12/21 11:31:39;;;;;;;3.20;0.65;;;17.80;99.90;;;;;;5111935;28;20684;-77
2022/12/21 11:34:28;;;;;;;2.15;0.40;;;17.80;99.90;;;;;;5114364;28;20273;-78
2022/12/21 11:37:00;;;;;;;1.60;0.40;;;17.80;99.90;;;;;;5112463;27;20314;-77
2022/12/21 11:39:31;;;;;;;3.25;0.40;;;17.80;99.90;;;;;;5113375;28;20303;-76
2022/12/21 11:42:02;;;;;;;0.50;0.30;;;17.80;99.90;;;;;;5114143;28;20198;-75
2022/12/21 11:44:33;;;;;;;1.83;0.30;;;17.80;99.90;;;;;;5113170;28;20663;-76
2022/12/21 11:47:22;;;;;;;1.58;0.38;;;17.80;99.90;;;;;;5102948;28;20214;-76
2022/12/21 11:50:24;;;;;;;1.45;0.43;;;17.80;99.90;;;;;;5113776;28;20212;-78
2022/12/21 11:53:23;;;;;;;1.75;0.75;;;17.80;99.90;;;;;;5113870;28;20230;-76
2022/12/21 11:56:12;;;;;;;2.05;0.40;;;17.80;99.90;;;;;;5113981;28;20286;-80
2022/12/21 11:59:07;;;;;;;1.60;0.38;;;17.70;99.90;;;;;;5113301;28;20187;-76
2022/12/21 12:01:50;;;;;;;1.15;0.40;;;17.80;99.90;;;;;;5113382;28;20631;-77
2022/12/21 12:04:44;;;;;;;2.20;0.40;;;17.70;99.90;;;;;;5113533;28;20341;-76
2022/12/21 12:07:37;;;;;;;1.85;0.40;;;17.70;99.90;;;;;;5093637;28;20287;-76
2022/12/21 12:10:25;;;;;;;2.08;0.45;;;17.70;99.90;;;;;;5107476;28;20226;-77
2022/12/21 12:13:06;;;;;;;0.90;0.30;;;17.70;99.90;;;;;;5113219;28;20294;-77
2022/12/21 12:15:46;;;;;;;2.00;0.40;;;17.70;99.90;;;;;;5113345;28;20187;-77
2022/12/21 12:18:36;;;;;;;1.85;0.52;;;17.70;99.90;;;;;;5113885;28;20201;-77
2022/12/21 12:21:46;;;;;;;0.80;0.50;;;17.70;99.90;;;;;;5111418;28;20187;-79
2022/12/21 12:24:45;;;;;;;0.77;0.40;;;17.70;99.90;;;;;;5034356;28;20296;-79
2022/12/21 12:27:35;;;;;;;3.67;0.60;;;17.70;99.90;;;;;;5019775;28;20292;-77
2022/12/21 12:30:12;;;;;;;1.40;0.50;;;17.70;99.90;;;;;;5083216;28;20550;-78
2022/12/21 12:32:58;;;;;;;1.77;0.50;;;17.70;99.90;;;;;;5106974;28;20342;-77
2022/12/21 12:35:57;;;;;;;2.00;0.40;;;17.70;99.90;;;;;;5113385;28;20233;-80
2022/12/21 12:38:39;;;;;;;1.48;0.57;;;17.70;99.90;;;;;;5113107;28;20274;-77
2022/12/21 12:41:32;;;;;;;2.85;0.60;;;17.70;99.90;;;;;;5096239;28;20632;-80
2022/12/21 12:44:07;;;;;;;0.95;0.73;;;17.70;99.90;;;;;;5108211;28;20191;-77
2022/12/21 12:46:54;;;;;;;2.00;0.73;;;17.70;99.90;;;;;;5117206;27;20695;-78
2022/12/21 12:49:42;;;;;;;1.48;0.63;;;17.70;99.90;;;;;;5120141;27;20187;-78
2022/12/21 12:52:23;;;;;;;5.05;0.68;;;17.70;99.90;;;;;;5110897;28;20188;-77
2022/12/21 12:55:04;;;;;;;2.03;0.60;;;17.70;99.90;;;;;;5119386;27;20199;-77
2022/12/21 12:57:46;;;;;;;1.95;0.60;;;17.60;99.90;;;;;;5108025;28;20546;-77
2022/12/21 13:00:18;;;;;;;3.45;0.57;;;17.60;99.90;;;;;;5118558;27;20275;-77
2022/12/21 13:03:00;;;;;;;3.53;0.60;;;17.60;99.90;;;;;;5116226;28;20222;-79
2022/12/21 13:05:39;;;;;;;0.57;0.52;;;17.60;99.90;;;;;;5113028;28;20271;-77
2022/12/21 13:08:19;;;;;;;1.63;0.60;;;17.60;99.90;;;;;;5114750;28;20274;-79
2022/12/21 13:10:56;;;;;;;3.10;0.60;;;17.60;99.90;;;;;;5116149;27;20207;-78
2022/12/21 13:13:34;;;;;;;1.88;0.57;;;17.60;99.90;;;;;;5115687;28;20215;-77
2022/12/21 13:16:10;;;;;;;2.38;0.60;;;17.60;99.90;;;;;;5114052;28;20272;-79
2022/12/21 13:18:47;;;;;;;4.38;1.38;;;17.60;99.90;;;;;;5106787;28;20274;-77
2022/12/21 13:21:20;;;;;;;2.42;0.40;;;17.60;99.90;;;;;;5116620;28;20179;-78
2022/12/21 13:23:55;;;;;;;1.50;0.50;;;17.60;99.90;;;;;;5112620;28;20192;-77
2022/12/21 13:26:32;;;;;;;1.05;0.47;;;17.60;99.90;;;;;;5114026;28;20199;-78
2022/12/21 13:29:08;;;;;;;1.55;0.40;;;17.60;99.90;;;;;;5115710;28;20524;-77
2022/12/21 13:31:43;;;;;;;1.85;0.40;;;17.60;99.90;;;;;;5116195;28;20282;-77
2022/12/21 13:34:18;;;;;;;0.82;0.40;;;17.60;99.90;;;;;;5116097;28;20314;-77
2022/12/21 13:36:50;;;;;;;0.98;0.38;;;17.60;99.90;;;;;;5105449;28;20583;-77
2022/12/21 13:39:27;;;;;;;0.77;0.30;;;17.60;99.90;;;;;;5116557;28;20726;-77
2022/12/21 13:42:05;;;;;;;0.77;0.40;;;17.60;99.90;;;;;;5116495;27;20619;-77